• Join FlightAware (Why Join?)
  • Login
  • US Flag 
03:32PM EDT


 

Airport Tracker/Info


-or-


 

Live Flight TrackerFlight Track Log ✈ DAL2270 ✈ 09-May-2013 ✈ KCVG - KSLC

Flight Track Log - Related Links

Times and Time Zones

All times are in EDT time to prevent confusion due to time zone crossing. See the DAL2270 flight status page for this flight to view local times or setup timezone preferences in your user account.

Time Position Orientation Groundspeed Altitude Reporting Facility
EDT Latitude Longitude Course Direction KTS MPH feet Rate Location/Type
04:48PM 39.0500 -84.7000 295° West 178 205 1,600  Level Cincinnati TRACON
04:50PM 39.0500 -84.8000 270° West 256 295 3,500 2,100 Climbing Cincinnati TRACON
04:51PM 38.9630 -84.8673 314° West  Level FlightAware Approximate
04:52PM 39.0438 -84.9823 311° West  Level FlightAware Approximate
04:52PM 39.0531 -84.9725 271° West 269 310 8,600  Level Indianapolis Center
04:53PM 39.0968 -85.1192 296° West  Level FlightAware Approximate
04:53PM 39.0850 -85.0650 294° West 281 323 11,200  Level Indianapolis Center
04:54PM 39.1489 -85.2593 295° West  Level FlightAware Approximate
04:54PM 39.1364 -85.1467 309° West 294 338 13,400  Level Indianapolis Center
04:55PM 39.1906 -85.2336 309° West 308 354 15,800 1,740 Climbing Indianapolis Center
04:56PM 39.2544 -85.3156 315° West 320 368 17,000 840 Climbing Indianapolis Center
04:57PM 39.3264 -85.4097 315° West 364 419 17,600 1,500 Climbing Indianapolis Center
04:58PM 39.4194 -85.5317 315° West 396 456 20,200 2,340 Climbing Indianapolis Center
04:59PM 39.4922 -85.6286 314° West 380 437 22,500 1,740 Climbing Indianapolis Center
05:00PM 39.5644 -85.7253 314° West 375 432 23,800 1,200 Climbing Indianapolis Center
05:01PM 39.6400 -85.8244 315° West 385 443 25,100 1,140 Climbing Indianapolis Center
05:02PM 39.7150 -85.9244 314° West 391 450 26,200 1,020 Climbing Indianapolis Center
05:03PM 39.8081 -86.0489 314° West 404 465 27,300 1,020 Climbing Indianapolis Center
05:04PM 39.9011 -86.1350 325° Northwest 422 486 28,400 960 Climbing Indianapolis Center
05:05PM 39.9597 -86.1822 328° Northwest 422 486 28,900 840 Climbing Chicago Center
05:06PM 40.0581 -86.2664 327° Northwest 429 494 29,800 720 Climbing Chicago Center
05:07PM 40.1581 -86.3536 326° Northwest 434 499 30,500 1,020 Climbing Chicago Center
05:08PM 40.2658 -86.4708 320° Northwest 427 491 32,000 960 Climbing Chicago Center
05:09PM 40.2889 -86.6106 282° West 405 466 32,600 480 Climbing Chicago Center
05:10PM 40.2947 -86.7567 273° West 403 464 33,000 300 Climbing Chicago Center
05:11PM 40.3008 -86.9047 273° West 409 471 33,300 360 Climbing Chicago Center
05:12PM 40.3072 -87.0539 273° West 413 475 33,800 300 Climbing Chicago Center
05:13PM 40.3147 -87.2322 273° West 412 474 34,000 60 Climbing Chicago Center
05:14PM 40.3200 -87.3792 273° West 409 471 34,000  Level Chicago Center
05:15PM 40.3261 -87.5419 273° West 408 470 34,000  Level Chicago Center
05:16PM 40.3314 -87.6883 273° West 407 468 34,000  Level Chicago Center
05:16PM 40.3333 -87.7322 273° West 408 470 34,000  Level Indianapolis Center
05:17PM 40.3394 -87.9111 273° West 411 473 34,000  Level Indianapolis Center
05:18PM 40.3422 -87.9861 273° West 411 473 34,000  Level Chicago Center
05:19PM 40.3472 -88.1350 273° West 411 473 34,000  Level Chicago Center
05:20PM 40.3511 -88.2878 272° West 418 481 34,000  Level Chicago Center
05:21PM 40.3575 -88.4719 273° West 423 487 34,000  Level Chicago Center
05:22PM 40.3614 -88.6153 272° West 425 489 34,000  Level Chicago Center
05:23PM 40.3656 -88.7722 272° West 429 494 34,000  Level Chicago Center
05:24PM 40.3692 -88.9303 272° West 432 497 34,000  Level Chicago Center
05:25PM 40.3728 -89.0878 272° West 433 498 34,000  Level Chicago Center
05:26PM 40.3775 -89.2747 272° West 429 494 34,000  Level Chicago Center
05:27PM 40.3800 -89.4336 271° West 431 496 34,000  Level Chicago Center
05:28PM 40.3822 -89.5931 271° West 435 501 34,000  Level Chicago Center
05:29PM 40.3853 -89.7567 271° West 441 507 34,000  Level Chicago Center
05:30PM 40.3869 -89.9189 271° West 441 507 34,100  Climbing Chicago Center
05:32PM 40.3911 -90.0758 272° West 427 491 34,000 -60 Descending Chicago Center
05:33PM 40.3931 -90.2333 271° West 427 491 34,000  Level Chicago Center
05:34PM 40.3947 -90.3906 271° West 429 494 34,000  Level Chicago Center
05:35PM 40.3969 -90.5728 271° West 417 480 34,000  Level Chicago Center
05:36PM 40.3989 -90.7272 271° West 422 486 34,000  Level Chicago Center
05:37PM 40.4003 -90.8811 271° West 422 486 34,000  Level Chicago Center
05:38PM 40.4011 -91.0361 270° West 425 489 34,000  Level Chicago Center
05:39PM 40.4019 -91.1933 270° West 430 495 34,000 240 Level Chicago Center
05:40PM 40.4011 -91.3622 270° West 430 495 34,600 720 Climbing Chicago Center
05:41PM 40.4036 -91.5172 271° West 429 494 35,600 660 Climbing Chicago Center
05:42PM 40.4039 -91.6667 270° West 417 480 36,000 120 Climbing Chicago Center
05:43PM 40.3856 -91.8781 264° West 421 484 36,000  Level Kansas City Center
05:44PM 40.3736 -92.0308 264° West 424 488 36,000  Level Kansas City Center
05:45PM 40.3739 -92.1861 270° West 429 494 36,000  Level Kansas City Center
05:46PM 40.3739 -92.3411 270° West 430 495 36,000  Level Kansas City Center
05:47PM 40.3731 -92.5242 270° West 428 493 36,000  Level Kansas City Center
05:48PM 40.3717 -92.6792 269° West 426 490 36,000  Level Kansas City Center
05:49PM 40.3717 -92.8278 270° West 427 491 36,000  Level Kansas City Center
05:50PM 40.3708 -93.0006 270° West 426 490 36,000  Level Kansas City Center
05:51PM 40.3697 -93.1617 270° West 428 493 36,000  Level Kansas City Center
05:52PM 40.3678 -93.3161 269° West 428 493 36,000  Level Kansas City Center
05:53PM 40.3661 -93.4692 269° West 426 490 36,000  Level Kansas City Center
05:54PM 40.3642 -93.6233 269° West 426 490 36,000  Level Kansas City Center
05:55PM 40.3617 -93.7781 269° West 428 493 36,000  Level Kansas City Center
05:57PM 40.3594 -93.9661 269° West 433 498 36,000  Level Kansas City Center
05:58PM 40.3561 -94.1233 268° West 435 501 36,000  Level Kansas City Center
05:59PM 40.3528 -94.2822 268° West 438 504 36,000  Level Kansas City Center
06:00PM 40.3506 -94.4553 269° West 442 509 36,000  Level Kansas City Center
06:01PM 40.3453 -94.6331 268° West 440 506 36,000  Level Kansas City Center
06:02PM 40.3394 -94.8131 268° West 440 506 36,000  Level Minneapolis Center
06:03PM 40.3347 -94.9725 268° West 439 505 36,000  Level Minneapolis Center
06:04PM 40.3319 -95.1333 269° West 440 506 36,000  Level Minneapolis Center
06:05PM 40.3275 -95.2947 268° West 441 507 36,000  Level Minneapolis Center
06:06PM 40.3236 -95.4578 268° West 445 512 36,000  Level Minneapolis Center
06:07PM 40.3189 -95.6208 268° West 446 513 36,000  Level Minneapolis Center
06:08PM 40.3125 -95.8186 268° West 450 518 36,000  Level Minneapolis Center
06:09PM 40.3072 -95.9819 268° West 448 516 36,000  Level Minneapolis Center
06:10PM 40.3014 -96.1447 267° West 447 514 36,000  Level Minneapolis Center
06:11PM 40.2956 -96.3106 267° West 453 521 36,000  Level Minneapolis Center
06:12PM 40.2894 -96.4761 267° West 453 521 36,000  Level Minneapolis Center
06:13PM 40.2831 -96.6408 267° West 453 521 36,000  Level Minneapolis Center
06:14PM 40.2758 -96.8053 267° West 453 521 36,000  Level Minneapolis Center
06:15PM 40.2675 -97.0033 267° West 452 520 36,000  Level Minneapolis Center
06:16PM 40.2611 -97.1672 267° West 451 519 36,000  Level Minneapolis Center
06:17PM 40.2544 -97.3311 267° West 450 518 36,000  Level Minneapolis Center
06:18PM 40.2461 -97.4872 266° West 450 518 36,000  Level Minneapolis Center
06:19PM 40.2372 -97.6847 267° West 451 519 36,000  Level Minneapolis Center
06:20PM 40.2289 -97.8486 266° West 451 519 36,000  Level Minneapolis Center
06:21PM 40.2211 -98.0153 267° West 454 522 36,000  Level Minneapolis Center
06:23PM 40.2114 -98.1811 266° West 456 525 36,000  Level Minneapolis Center
06:24PM 40.2028 -98.3489 266° West 458 527 36,000  Level Minneapolis Center
06:25PM 40.1936 -98.5167 266° West 460 529 36,000  Level Minneapolis Center
06:26PM 40.1833 -98.6844 265° West 461 531 36,000  Level Minneapolis Center
06:27PM 40.1728 -98.8861 266° West 461 531 36,000  Level Minneapolis Center
06:27PM 40.1664 -98.9881 265° West 463 533 36,000  Level Denver Center
06:28PM 40.1544 -99.1908 266° West 465 535 36,000  Level Denver Center
06:30PM 40.1447 -99.3583 266° West 462 532 36,000  Level Denver Center
06:31PM 40.1503 -99.5269 273° West 461 531 36,000  Level Denver Center
06:32PM 40.1544 -99.6942 272° West 459 528 36,000  Level Denver Center
06:33PM 40.1583 -99.8633 272° West 462 532 36,000  Level Denver Center
06:34PM 40.1631 -100.0553 272° West 465 535 36,000  Level Denver Center
06:35PM 40.1658 -100.2183 271° West 468 539 36,000  Level Denver Center
06:36PM 40.1703 -100.4097 272° West 469 540 36,000  Level Denver Center
06:37PM 40.1731 -100.5739 271° West 470 541 36,000  Level Denver Center
06:38PM 40.1756 -100.7378 271° West 470 541 36,000  Level Denver Center
06:39PM 40.1786 -100.9225 271° West 455 524 36,000  Level Denver Center
06:40PM 40.1800 -101.0819 271° West 455 524 36,000  Level Denver Center
06:41PM 40.1831 -101.2678 271° West 456 525 36,000  Level Denver Center
06:42PM 40.1847 -101.4278 271° West 458 527 36,000  Level Denver Center
06:43PM 40.1856 -101.6131 270° West 456 525 36,000  Level Denver Center
06:44PM 40.1881 -101.7717 271° West 456 525 36,000  Level Denver Center
06:45PM 40.1881 -101.9561 270° West 455 524 36,000  Level Denver Center
06:46PM 40.1886 -102.1406 270° West 457 526 36,000  Level Denver Center
06:47PM 40.1897 -102.3242 271° West 453 521 36,000  Level Denver Center
06:48PM 40.1897 -102.4808 270° West 451 519 36,000  Level Denver Center
06:49PM 40.1886 -102.6628 270° West 448 516 36,000  Level Denver Center
06:50PM 40.1903 -102.8194 271° West 452 520 36,000 -120 Level Denver Center
06:51PM 40.1886 -103.0019 269° West 451 519 35,800 -720 Descending Denver Center
06:52PM 40.1883 -103.1600 270° West 453 521 34,600 -900 Descending Denver Center
06:53PM 40.1869 -103.3511 270° West 470 541 34,000 -300 Descending Denver Center
06:55PM 40.1861 -103.5289 270° West 474 545 34,000  Level Denver Center
06:56PM 40.1847 -103.6925 269° West 470 541 34,000  Level Denver Center
06:57PM 40.1822 -103.8753 269° West 473 544 34,000  Level Denver Center
06:58PM 40.1806 -104.0444 269° West 469 540 34,000  Level Denver Center
06:59PM 40.1781 -104.2281 269° West 470 541 34,000  Level Denver Center
07:00PM 40.1758 -104.3964 269° West 467 537 34,000  Level Denver Center
07:01PM 40.1733 -104.5806 269° West 471 542 34,000  Level Denver Center
07:02PM 40.1700 -104.7503 269° West 472 543 34,000  Level Denver Center
07:03PM 40.1656 -104.9328 268° West 470 541 34,000  Level Denver Center
07:04PM 40.1633 -105.1025 269° West 470 541 34,000  Level Denver Center
07:05PM 40.1603 -105.2828 269° West 465 535 34,000  Level Denver Center
07:06PM 40.1550 -105.4531 268° West 470 541 34,000  Level Denver Center
07:07PM 40.1506 -105.6361 268° West 471 542 34,000  Level Denver Center
07:08PM 40.1467 -105.8164 268° West 466 536 34,000  Level Denver Center
07:09PM 40.1394 -105.9742 267° West 454 522 34,000  Level Denver Center
07:10PM 40.1347 -106.1778 268° West 466 536 34,000  Level Denver Center
07:11PM 40.1286 -106.3461 267° West 466 536 34,000  Level Denver Center
07:12PM 40.1233 -106.5228 268° West 463 533 34,000  Level Denver Center
07:13PM 40.1169 -106.7106 268° West 465 535 34,000  Level Denver Center
07:14PM 40.1108 -106.8708 267° West 462 532 34,000  Level Denver Center
07:15PM 40.1033 -107.0597 267° West 467 537 34,000  Level Denver Center
07:16PM 40.0972 -107.2192 267° West 462 532 34,000  Level Denver Center
07:17PM 40.0897 -107.4083 267° West 466 536 34,000  Level Denver Center
07:19PM 40.0825 -107.5694 267° West 465 535 34,000  Level Denver Center
07:20PM 40.0747 -107.7575 267° West 466 536 34,000  Level Denver Center
07:21PM 40.0681 -107.9183 267° West 464 534 34,000  Level Denver Center
07:22PM 40.0764 -108.1072 273° West 467 537 34,000  Level Denver Center
07:23PM 40.0828 -108.2669 273° West 465 535 34,000  Level Denver Center
07:24PM 40.0911 -108.4528 273° West 462 532 34,000  Level Denver Center
07:25PM 40.0978 -108.6142 273° West 466 536 34,000  Level Denver Center
07:26PM 40.1047 -108.7994 273° West 463 533 34,000  Level Denver Center
07:27PM 40.1114 -108.9597 273° West 463 533 34,000  Level Salt Lake Center
07:28PM 40.1181 -109.1456 273° West 462 532 34,000  Level Denver Center
07:29PM 40.1236 -109.3061 273° West 463 533 34,000  Level Denver Center
07:30PM 40.1289 -109.4689 272° West 468 539 34,000  Level Salt Lake Center
07:31PM 40.1353 -109.6592 273° West 470 541 34,000 -600 Level Salt Lake Center
07:32PM 40.1397 -109.8236 272° West 473 544 32,800 -1,500 Descending Salt Lake Center
07:33PM 40.1456 -110.0139 272° West 472 543 31,000 -1,380 Descending Salt Lake Center
07:34PM 40.1497 -110.1772 272° West 471 542 30,000 -540 Descending Salt Lake Center
07:35PM 40.1472 -110.3694 269° West 473 544 30,000  Level Salt Lake Center
07:36PM 40.1453 -110.5339 269° West 473 544 30,000 -960 Level Salt Lake Center
07:37PM 40.1433 -110.7247 269° West 472 543 28,100 -2,760 Descending Salt Lake Center
07:38PM 40.1403 -110.8906 269° West 476 548 24,300 -3,240 Descending Salt Lake Center
07:39PM 40.1386 -111.0753 269° West 470 541 21,500 -2,520 Descending Salt Lake Center
07:40PM 40.1372 -111.2383 269° West 455 524 19,200 -1,980 Descending Salt Lake Center
07:41PM 40.1339 -111.3947 268° West 437 503 17,500 -1,620 Descending Salt Lake Center
07:42PM 40.1303 -111.5589 268° West 408 470 16,000 -1,200 Descending Salt Lake Center
07:42PM 40.1433 -111.6019 292° West 399 459 16,000 -480 Level Salt Lake Center
07:43PM 40.1792 -111.6764 302° West 398 458 15,500 -1,200 Descending Salt Lake Center
07:44PM 40.1994 -111.7206 301° West 393 452 14,800 -1,680 Descending Salt Lake Center
07:44PM 40.2325 -111.7967 300° West 389 448 13,800 -1,380 Descending Salt Lake Center
07:45PM 40.3044 -111.8800 319° Northwest 352 405 12,400 -1,380 Descending Salt Lake Center
07:46PM 40.4081 -111.9450 334° Northwest 311 358 10,900 -1,200 Descending Salt Lake Center
07:47PM 40.4783 -111.9614 350° North 292 336 10,000 -1,080 Descending Salt Lake Center
07:48PM 40.5514 -111.9694 355° North 264 304 8,900 -1,140 Descending Salt Lake Center